Eurocargo Salerno — 9HA3534 — position and weather

sailwx.info

Track history (hours):
 
Tides and Currents Weather Stations Pressure Air Temp Water Temp Dewpoint Dewpoint Depression Visibility Wind Speed Wind Dir Waves Ship Positions

Eurocargo Salerno

Last reported at 2018-Jun-19 18:29 UTC. Time now 2018-Jun-19 18:28 UTC.
Position N 44°24' E 008°53'.

Length 195 m; draft 6.3 m.

Type: Cargo ship. MMSI: 229706000.

Date/timePositionNaut miles runAvg speedWind from/ knotsBaromVisibWave heightAir tempDewpointWater temp
2018-Jun-19 18:29N 44°24' E 008°53'0 0.0
2018-Jun-19 17:59N 44°24' E 008°53'0 0.0
2018-Jun-19 17:29N 44°24' E 008°53'0 0.0
2018-Jun-19 16:59N 44°24' E 008°53'0 0.0
2018-Jun-19 16:29N 44°24' E 008°53'0 0.0
2018-Jun-19 15:59N 44°24' E 008°53'0 0.0
2018-Jun-19 15:29N 44°24' E 008°53'0 0.0
2018-Jun-19 14:59N 44°24' E 008°53'0 0.0
2018-Jun-19 14:29N 44°24' E 008°53'0 0.0
2018-Jun-19 13:59N 44°24' E 008°53'0 0.7
2018-Jun-19 13:30N 44°24' E 008°54'4 7.0
2018-Jun-19 13:00N 44°22' E 008°58'714.3
2018-Jun-19 12:31N 44°16' E 009°02'815.9
2018-Jun-19 12:00N 44°09' E 009°08'816.0
2018-Jun-19 11:31N 44°02' E 009°13'816.1
2018-Jun-19 11:00N 43°55' E 009°19'816.1
2018-Jun-19 10:31N 43°48' E 009°25'816.2
2018-Jun-19 10:01N 43°41' E 009°30'815.9
2018-Jun-19 09:30N 43°34' E 009°36'815.8
2018-Jun-19 09:01N 43°28' E 009°41'815.7
2018-Jun-19 08:30N 43°21' E 009°47'815.6
2018-Jun-19 08:00N 43°15' E 009°55'815.6
2018-Jun-19 07:30N 43°10' E 010°03'815.5
2018-Jun-19 07:00N 43°05' E 010°10'815.4
2018-Jun-19 06:31N 42°60' E 010°18'1815.0
2018-Jun-19 05:19N 42°47' E 010°36'514.8
2018-Jun-19 04:57N 42°43' E 010°40'12715.7
2018-Jun-18 20:52N 41°07' E 012°32'615.7
2018-Jun-18 20:30N 41°03' E 012°37'3615.8
2018-Jun-18 18:14N 40°36' E 013°08'416.0
2018-Jun-18 18:01N 40°33' E 013°11'13915.9
2018-Jun-18 09:15N 38°48' E 015°09'415.9
2018-Jun-18 08:59N 38°44' E 015°12'715.6
2018-Jun-18 08:30N 38°39' E 015°18'815.4
2018-Jun-18 07:59N 38°33' E 015°25'815.4
2018-Jun-18 07:29N 38°27' E 015°32'714.9
2018-Jun-18 07:00N 38°22' E 015°38'712.8
2018-Jun-18 06:27N 38°15' E 015°41'614.2
2018-Jun-18 06:00N 38°10' E 015°37'713.7
2018-Jun-18 05:30N 38°03' E 015°33'815.6
2018-Jun-18 05:01N 37°57' E 015°29'1315.6
2018-Jun-18 04:10N 37°45' E 015°21'10 0.8
2018-Jun-17 16:04N 37°54' E 015°26'916.5
2018-Jun-17 15:33N 38°02' E 015°31'216.3
2018-Jun-17 15:25N 38°04' E 015°32'717.6
2018-Jun-17 14:59N 38°11' E 015°35'814.1
2018-Jun-17 14:24N 38°18' E 015°40'616.3
2018-Jun-17 14:00N 38°23' E 015°35'916.2
2018-Jun-17 13:28N 38°30' E 015°27'816.0
2018-Jun-17 13:00N 38°36' E 015°21'915.8
2018-Jun-17 12:27N 38°42' E 015°14'12115.6
2018-Jun-17 04:42N 40°14' E 013°32'315.6
2018-Jun-17 04:30N 40°17' E 013°30'815.5
2018-Jun-17 03:59N 40°23' E 013°22'715.6
2018-Jun-17 03:30N 40°28' E 013°16'815.6
2018-Jun-17 03:00N 40°34' E 013°09'815.4
2018-Jun-17 02:30N 40°40' E 013°02'13615.9
2018-Jun-16 17:55N 42°23' E 011°04'616.1
2018-Jun-16 17:30N 42°27' E 010°57'816.3
2018-Jun-16 17:00N 42°33' E 010°50'816.6
2018-Jun-16 16:30N 42°40' E 010°43'816.5
2018-Jun-16 16:00N 42°47' E 010°36'816.4
2018-Jun-16 15:30N 42°54' E 010°30'816.5
2018-Jun-16 15:00N 43°01' E 010°26'816.4
2018-Jun-16 14:30N 43°09' E 010°22'816.3
2018-Jun-16 14:00N 43°17' E 010°18'816.1
2018-Jun-16 13:30N 43°24' E 010°15'714.4
2018-Jun-16 13:00N 43°32' E 010°15'4 7.6
2018-Jun-16 12:31N 43°34' E 010°18'1 1.4
2018-Jun-16 11:58N 43°35' E 010°19'0 0.0
2018-Jun-16 11:28N 43°35' E 010°19'0 0.0
2018-Jun-16 10:58N 43°35' E 010°19'0 0.0
2018-Jun-16 10:28N 43°35' E 010°19'0 0.0
2018-Jun-16 09:58N 43°35' E 010°19'0 0.0
2018-Jun-16 09:28N 43°35' E 010°19'0 0.0
2018-Jun-16 08:58N 43°35' E 010°19'0 0.0
2018-Jun-16 08:25N 43°35' E 010°19'0 0.0
2018-Jun-16 07:58N 43°35' E 010°19'0 0.0
2018-Jun-16 07:28N 43°35' E 010°19'0 1.0
2018-Jun-16 07:00N 43°34' E 010°19'3 6.2
2018-Jun-16 06:30N 43°32' E 010°17'2 4.7
2018-Jun-16 06:01N 43°30' E 010°15'714.9
2018-Jun-16 05:30N 43°22' E 010°16'815.5
2018-Jun-16 05:00N 43°15' E 010°19'815.6
2018-Jun-16 04:31N 43°08' E 010°22'815.3
2018-Jun-16 04:01N 43°00' E 010°26'815.1
2018-Jun-16 03:30N 42°53' E 010°30'915.0
2018-Jun-16 02:56N 42°46' E 010°36'18415.4
2018-Jun-15 14:57N 40°27' E 013°18'12315.6
2018-Jun-15 07:03N 38°53' E 015°02'515.9
2018-Jun-15 06:45N 38°50' E 015°06'415.9
2018-Jun-15 06:30N 38°47' E 015°09'815.7
2018-Jun-15 05:58N 38°40' E 015°16'816.0
2018-Jun-15 05:30N 38°35' E 015°23'815.7
2018-Jun-15 05:00N 38°29' E 015°30'815.7
2018-Jun-15 04:30N 38°23' E 015°36'814.8
2018-Jun-15 03:59N 38°17' E 015°42'714.7
2018-Jun-15 03:30N 38°11' E 015°37'714.4
2018-Jun-15 03:00N 38°04' E 015°34'815.8
2018-Jun-15 02:30N 37°57' E 015°29'1415.8
2018-Jun-15 01:38N 37°45' E 015°21'216.0
2018-Jun-15 01:30N 37°43' E 015°20'13 1.1
2018-Jun-14 14:21N 37°54' E 015°26'816.4
2018-Jun-14 13:52N 38°02' E 015°31'716.6
2018-Jun-14 13:25N 38°08' E 015°35'716.2
2018-Jun-14 13:00N 38°15' E 015°37'813.1
2018-Jun-14 12:25N 38°22' E 015°39'715.9
2018-Jun-14 11:59N 38°29' E 015°35'1115.9
2018-Jun-14 11:19N 38°39' E 015°30'515.7
2018-Jun-14 10:59N 38°43' E 015°28'9015.4
2018-Jun-14 05:08N 40°08' E 014°48'214.8
2018-Jun-14 04:58N 40°10' E 014°47'714.8
2018-Jun-14 04:31N 40°16' E 014°44'914.8
2018-Jun-14 03:53N 40°26' E 014°43'615.1
2018-Jun-14 03:31N 40°31' E 014°43'6 1.5
2018-Jun-13 23:28N 40°37' E 014°40'714.9
2018-Jun-13 23:00N 40°34' E 014°31'715.1
2018-Jun-13 22:30N 40°32' E 014°22'815.1
2018-Jun-13 21:57N 40°31' E 014°11'715.1
2018-Jun-13 21:30N 40°34' E 014°03'815.6
2018-Jun-13 21:00N 40°38' E 013°54'815.9
2018-Jun-13 20:30N 40°42' E 013°45'815.8
2018-Jun-13 20:00N 40°48' E 013°37'17315.5
2018-Jun-13 08:49N 42°41' E 010°42'515.3
2018-Jun-13 08:30N 42°45' E 010°38'915.7
2018-Jun-13 07:54N 42°53' E 010°30'715.4
2018-Jun-13 07:28N 42°58' E 010°24'1015.2
2018-Jun-13 06:48N 43°04' E 010°13'415.0
2018-Jun-13 06:30N 43°07' E 010°09'714.8
2018-Jun-13 06:00N 43°12' E 010°01'714.8
2018-Jun-13 05:30N 43°16' E 009°53'714.7
2018-Jun-13 05:00N 43°21' E 009°45'714.7
2018-Jun-13 04:30N 43°27' E 009°39'714.9
2018-Jun-13 04:00N 43°33' E 009°34'715.0
2018-Jun-13 03:30N 43°40' E 009°28'815.1
2018-Jun-13 03:00N 43°46' E 009°23'714.8
2018-Jun-13 02:30N 43°52' E 009°17'714.6
2018-Jun-13 02:00N 43°58' E 009°11'714.6
2018-Jun-13 01:30N 44°05' E 009°07'714.4
2018-Jun-13 01:00N 44°12' E 009°03'714.1
2018-Jun-13 00:30N 44°18' E 008°59'612.2
2018-Jun-13 00:00N 44°24' E 008°56'2 3.6
2018-Jun-12 23:29N 44°24' E 008°53'0 0.0
2018-Jun-12 22:59N 44°24' E 008°53'0 0.0
2018-Jun-12 22:29N 44°24' E 008°53'0 0.0
2018-Jun-12 21:59N 44°24' E 008°53'0 0.0
2018-Jun-12 21:29N 44°24' E 008°53'0 0.0
2018-Jun-12 20:59N 44°24' E 008°53'0 0.0
2018-Jun-12 20:29N 44°24' E 008°53'0 0.0
2018-Jun-12 19:59N 44°24' E 008°53'0 0.0
2018-Jun-12 19:29N 44°24' E 008°53'0 0.0
2018-Jun-12 18:59N 44°24' E 008°53'0 0.0
2018-Jun-12 18:29N 44°24' E 008°53'0 0.0
2018-Jun-12 17:59N 44°24' E 008°53'0 0.0
2018-Jun-12 17:29N 44°24' E 008°53'0 0.1
2018-Jun-12 17:00N 44°24' E 008°53'3 5.8
2018-Jun-12 16:30N 44°23' E 008°57'612.5
2018-Jun-12 16:00N 44°17' E 009°01'815.3
2018-Jun-12 15:30N 44°11' E 009°06'815.4
2018-Jun-12 15:00N 44°04' E 009°11'815.8
2018-Jun-12 14:30N 43°57' E 009°17'816.0
2018-Jun-12 14:00N 43°50' E 009°23'816.0
2018-Jun-12 13:31N 43°44' E 009°28'815.8
2018-Jun-12 13:00N 43°37' E 009°33'815.8
2018-Jun-12 12:31N 43°30' E 009°39'815.9
2018-Jun-12 12:00N 43°23' E 009°45'815.6
2018-Jun-12 11:30N 43°17' E 009°52'815.6
2018-Jun-12 11:00N 43°12' E 010°00'815.4
2018-Jun-12 10:30N 43°07' E 010°08'815.7
2018-Jun-12 10:00N 43°02' E 010°16'2515.6
2018-Jun-12 08:26N 42°44' E 010°38'5615.6
2018-Jun-12 04:51N 42°04' E 011°31'715.9
2018-Jun-12 04:24N 41°58' E 011°37'615.8
2018-Jun-12 04:00N 41°53' E 011°43'2216.0
2018-Jun-12 02:38N 41°36' E 012°01'1115.9
2018-Jun-12 01:58N 41°28' E 012°10'715.9
2018-Jun-12 01:30N 41°22' E 012°16'815.8
2018-Jun-12 01:00N 41°16' E 012°22'815.7
2018-Jun-12 00:30N 41°10' E 012°29'815.8
2018-Jun-12 00:00N 41°04' E 012°36'2216.2
2018-Jun-11 22:38N 40°47' E 012°55'216.2
2018-Jun-11 22:30N 40°46' E 012°57'816.3
2018-Jun-11 22:00N 40°39' E 013°04'816.4
2018-Jun-11 21:30N 40°33' E 013°11'816.4
2018-Jun-11 21:00N 40°27' E 013°18'816.5
2018-Jun-11 20:30N 40°20' E 013°24'1916.3
2018-Jun-11 19:22N 40°06' E 013°40'616.3
2018-Jun-11 19:01N 40°02' E 013°45'816.2
2018-Jun-11 18:31N 39°56' E 013°52'816.1
2018-Jun-11 18:00N 39°50' E 013°59'816.1
2018-Jun-11 17:30N 39°43' E 014°06'816.1
2018-Jun-11 17:00N 39°37' E 014°13'5016.2
2018-Jun-11 13:56N 38°60' E 014°55'716.0
2018-Jun-11 13:30N 38°55' E 015°01'816.2
2018-Jun-11 12:59N 38°48' E 015°08'816.2
2018-Jun-11 12:30N 38°42' E 015°14'816.1
2018-Jun-11 12:00N 38°36' E 015°21'815.9
2018-Jun-11 11:30N 38°30' E 015°28'815.9
2018-Jun-11 11:00N 38°25' E 015°35'815.6
2018-Jun-11 10:30N 38°19' E 015°41'511.1
2018-Jun-11 10:01N 38°14' E 015°37'713.6
2018-Jun-11 09:31N 38°07' E 015°36'714.8
2018-Jun-11 09:00N 38°01' E 015°32'816.2
2018-Jun-11 08:30N 37°53' E 015°28'1016.1
2018-Jun-11 07:51N 37°44' E 015°21'11 0.8
2018-Jun-10 18:30N 37°54' E 015°26'816.5
2018-Jun-10 18:00N 38°02' E 015°30'815.7
2018-Jun-10 17:30N 38°09' E 015°34'815.6
2018-Jun-10 17:00N 38°16' E 015°40'714.8
2018-Jun-10 16:30N 38°22' E 015°36'815.8
2018-Jun-10 16:00N 38°28' E 015°29'815.6
2018-Jun-10 15:30N 38°34' E 015°22'815.7
2018-Jun-10 14:59N 38°40' E 015°15'815.6
2018-Jun-10 14:30N 38°46' E 015°09'8415.8
2018-Jun-10 09:09N 39°50' E 013°58'215.6
2018-Jun-10 09:00N 39°52' E 013°56'3815.6
2018-Jun-10 06:35N 40°21' E 013°25'615.5
2018-Jun-10 06:13N 40°25' E 013°20'415.5
2018-Jun-10 05:59N 40°28' E 013°17'4015.7
2018-Jun-10 03:28N 40°58' E 012°43'13116.1
2018-Jun-09 19:19N 42°36' E 010°47'616.4
2018-Jun-09 18:58N 42°41' E 010°42'816.9
2018-Jun-09 18:30N 42°47' E 010°35'  
Track history (hours):
 
Tides and Currents Weather Stations Pressure Air Temp Water Temp Dewpoint Dewpoint Depression Visibility Wind Speed Wind Dir Waves Ship Positions

Eurocargo Salerno

Last reported at 2018-Jun-19 18:29 UTC. Time now 2018-Jun-19 18:28 UTC.
Position N 44°24' E 008°53'.

Length 195 m; draft 6.3 m.

Type: Cargo ship. MMSI: 229706000.

Date/timePositionNaut miles runAvg speedWind from/ knotsBaromVisibWave heightAir tempDewpointWater temp
2018-Jun-19 18:29N 44°24' E 008°53'0 0.0
2018-Jun-19 17:59N 44°24' E 008°53'0 0.0
2018-Jun-19 17:29N 44°24' E 008°53'0 0.0
2018-Jun-19 16:59N 44°24' E 008°53'0 0.0
2018-Jun-19 16:29N 44°24' E 008°53'0 0.0
2018-Jun-19 15:59N 44°24' E 008°53'0 0.0
2018-Jun-19 15:29N 44°24' E 008°53'0 0.0
2018-Jun-19 14:59N 44°24' E 008°53'0 0.0
2018-Jun-19 14:29N 44°24' E 008°53'0 0.0
2018-Jun-19 13:59N 44°24' E 008°53'0 0.7
2018-Jun-19 13:30N 44°24' E 008°54'4 7.0
2018-Jun-19 13:00N 44°22' E 008°58'714.3
2018-Jun-19 12:31N 44°16' E 009°02'815.9
2018-Jun-19 12:00N 44°09' E 009°08'816.0
2018-Jun-19 11:31N 44°02' E 009°13'816.1
2018-Jun-19 11:00N 43°55' E 009°19'816.1
2018-Jun-19 10:31N 43°48' E 009°25'816.2
2018-Jun-19 10:01N 43°41' E 009°30'815.9
2018-Jun-19 09:30N 43°34' E 009°36'815.8
2018-Jun-19 09:01N 43°28' E 009°41'815.7
2018-Jun-19 08:30N 43°21' E 009°47'815.6
2018-Jun-19 08:00N 43°15' E 009°55'815.6
2018-Jun-19 07:30N 43°10' E 010°03'815.5
2018-Jun-19 07:00N 43°05' E 010°10'815.4
2018-Jun-19 06:31N 42°60' E 010°18'1815.0
2018-Jun-19 05:19N 42°47' E 010°36'514.8
2018-Jun-19 04:57N 42°43' E 010°40'12715.7
2018-Jun-18 20:52N 41°07' E 012°32'615.7
2018-Jun-18 20:30N 41°03' E 012°37'3615.8
2018-Jun-18 18:14N 40°36' E 013°08'416.0
2018-Jun-18 18:01N 40°33' E 013°11'13915.9
2018-Jun-18 09:15N 38°48' E 015°09'415.9
2018-Jun-18 08:59N 38°44' E 015°12'715.6
2018-Jun-18 08:30N 38°39' E 015°18'815.4
2018-Jun-18 07:59N 38°33' E 015°25'815.4
2018-Jun-18 07:29N 38°27' E 015°32'714.9
2018-Jun-18 07:00N 38°22' E 015°38'712.8
2018-Jun-18 06:27N 38°15' E 015°41'614.2
2018-Jun-18 06:00N 38°10' E 015°37'713.7
2018-Jun-18 05:30N 38°03' E 015°33'815.6
2018-Jun-18 05:01N 37°57' E 015°29'1315.6
2018-Jun-18 04:10N 37°45' E 015°21'10 0.8
2018-Jun-17 16:04N 37°54' E 015°26'916.5
2018-Jun-17 15:33N 38°02' E 015°31'216.3
2018-Jun-17 15:25N 38°04' E 015°32'717.6
2018-Jun-17 14:59N 38°11' E 015°35'814.1
2018-Jun-17 14:24N 38°18' E 015°40'616.3
2018-Jun-17 14:00N 38°23' E 015°35'916.2
2018-Jun-17 13:28N 38°30' E 015°27'816.0
2018-Jun-17 13:00N 38°36' E 015°21'915.8
2018-Jun-17 12:27N 38°42' E 015°14'12115.6
2018-Jun-17 04:42N 40°14' E 013°32'315.6
2018-Jun-17 04:30N 40°17' E 013°30'815.5
2018-Jun-17 03:59N 40°23' E 013°22'715.6
2018-Jun-17 03:30N 40°28' E 013°16'815.6
2018-Jun-17 03:00N 40°34' E 013°09'815.4
2018-Jun-17 02:30N 40°40' E 013°02'13615.9
2018-Jun-16 17:55N 42°23' E 011°04'616.1
2018-Jun-16 17:30N 42°27' E 010°57'816.3
2018-Jun-16 17:00N 42°33' E 010°50'816.6
2018-Jun-16 16:30N 42°40' E 010°43'816.5
2018-Jun-16 16:00N 42°47' E 010°36'816.4
2018-Jun-16 15:30N 42°54' E 010°30'816.5
2018-Jun-16 15:00N 43°01' E 010°26'816.4
2018-Jun-16 14:30N 43°09' E 010°22'816.3
2018-Jun-16 14:00N 43°17' E 010°18'816.1
2018-Jun-16 13:30N 43°24' E 010°15'714.4
2018-Jun-16 13:00N 43°32' E 010°15'4 7.6
2018-Jun-16 12:31N 43°34' E 010°18'1 1.4
2018-Jun-16 11:58N 43°35' E 010°19'0 0.0
2018-Jun-16 11:28N 43°35' E 010°19'0 0.0
2018-Jun-16 10:58N 43°35' E 010°19'0 0.0
2018-Jun-16 10:28N 43°35' E 010°19'0 0.0
2018-Jun-16 09:58N 43°35' E 010°19'0 0.0
2018-Jun-16 09:28N 43°35' E 010°19'0 0.0
2018-Jun-16 08:58N 43°35' E 010°19'0 0.0
2018-Jun-16 08:25N 43°35' E 010°19'0 0.0
2018-Jun-16 07:58N 43°35' E 010°19'0 0.0
2018-Jun-16 07:28N 43°35' E 010°19'0 1.0
2018-Jun-16 07:00N 43°34' E 010°19'3 6.2
2018-Jun-16 06:30N 43°32' E 010°17'2 4.7
2018-Jun-16 06:01N 43°30' E 010°15'714.9
2018-Jun-16 05:30N 43°22' E 010°16'815.5
2018-Jun-16 05:00N 43°15' E 010°19'815.6
2018-Jun-16 04:31N 43°08' E 010°22'815.3
2018-Jun-16 04:01N 43°00' E 010°26'815.1
2018-Jun-16 03:30N 42°53' E 010°30'915.0
2018-Jun-16 02:56N 42°46' E 010°36'18415.4
2018-Jun-15 14:57N 40°27' E 013°18'12315.6
2018-Jun-15 07:03N 38°53' E 015°02'515.9
2018-Jun-15 06:45N 38°50' E 015°06'415.9
2018-Jun-15 06:30N 38°47' E 015°09'815.7
2018-Jun-15 05:58N 38°40' E 015°16'816.0
2018-Jun-15 05:30N 38°35' E 015°23'815.7
2018-Jun-15 05:00N 38°29' E 015°30'815.7
2018-Jun-15 04:30N 38°23' E 015°36'814.8
2018-Jun-15 03:59N 38°17' E 015°42'714.7
2018-Jun-15 03:30N 38°11' E 015°37'714.4
2018-Jun-15 03:00N 38°04' E 015°34'815.8
2018-Jun-15 02:30N 37°57' E 015°29'1415.8
2018-Jun-15 01:38N 37°45' E 015°21'216.0
2018-Jun-15 01:30N 37°43' E 015°20'13 1.1
2018-Jun-14 14:21N 37°54' E 015°26'816.4
2018-Jun-14 13:52N 38°02' E 015°31'716.6
2018-Jun-14 13:25N 38°08' E 015°35'716.2
2018-Jun-14 13:00N 38°15' E 015°37'813.1
2018-Jun-14 12:25N 38°22' E 015°39'715.9
2018-Jun-14 11:59N 38°29' E 015°35'1115.9
2018-Jun-14 11:19N 38°39' E 015°30'515.7
2018-Jun-14 10:59N 38°43' E 015°28'9015.4
2018-Jun-14 05:08N 40°08' E 014°48'214.8
2018-Jun-14 04:58N 40°10' E 014°47'714.8
2018-Jun-14 04:31N 40°16' E 014°44'914.8
2018-Jun-14 03:53N 40°26' E 014°43'615.1
2018-Jun-14 03:31N 40°31' E 014°43'6 1.5
2018-Jun-13 23:28N 40°37' E 014°40'714.9
2018-Jun-13 23:00N 40°34' E 014°31'715.1
2018-Jun-13 22:30N 40°32' E 014°22'815.1
2018-Jun-13 21:57N 40°31' E 014°11'715.1
2018-Jun-13 21:30N 40°34' E 014°03'815.6
2018-Jun-13 21:00N 40°38' E 013°54'815.9
2018-Jun-13 20:30N 40°42' E 013°45'815.8
2018-Jun-13 20:00N 40°48' E 013°37'17315.5
2018-Jun-13 08:49N 42°41' E 010°42'515.3
2018-Jun-13 08:30N 42°45' E 010°38'915.7
2018-Jun-13 07:54N 42°53' E 010°30'715.4
2018-Jun-13 07:28N 42°58' E 010°24'1015.2
2018-Jun-13 06:48N 43°04' E 010°13'415.0
2018-Jun-13 06:30N 43°07' E 010°09'714.8
2018-Jun-13 06:00N 43°12' E 010°01'714.8
2018-Jun-13 05:30N 43°16' E 009°53'714.7
2018-Jun-13 05:00N 43°21' E 009°45'714.7
2018-Jun-13 04:30N 43°27' E 009°39'714.9
2018-Jun-13 04:00N 43°33' E 009°34'715.0
2018-Jun-13 03:30N 43°40' E 009°28'815.1
2018-Jun-13 03:00N 43°46' E 009°23'714.8
2018-Jun-13 02:30N 43°52' E 009°17'714.6
2018-Jun-13 02:00N 43°58' E 009°11'714.6
2018-Jun-13 01:30N 44°05' E 009°07'714.4
2018-Jun-13 01:00N 44°12' E 009°03'714.1
2018-Jun-13 00:30N 44°18' E 008°59'612.2
2018-Jun-13 00:00N 44°24' E 008°56'2 3.6
2018-Jun-12 23:29N 44°24' E 008°53'0 0.0
2018-Jun-12 22:59N 44°24' E 008°53'0 0.0
2018-Jun-12 22:29N 44°24' E 008°53'0 0.0
2018-Jun-12 21:59N 44°24' E 008°53'0 0.0
2018-Jun-12 21:29N 44°24' E 008°53'0 0.0
2018-Jun-12 20:59N 44°24' E 008°53'0 0.0
2018-Jun-12 20:29N 44°24' E 008°53'0 0.0
2018-Jun-12 19:59N 44°24' E 008°53'0 0.0
2018-Jun-12 19:29N 44°24' E 008°53'0 0.0
2018-Jun-12 18:59N 44°24' E 008°53'0 0.0
2018-Jun-12 18:29N 44°24' E 008°53'0 0.0
2018-Jun-12 17:59N 44°24' E 008°53'0 0.0
2018-Jun-12 17:29N 44°24' E 008°53'0 0.1
2018-Jun-12 17:00N 44°24' E 008°53'3 5.8
2018-Jun-12 16:30N 44°23' E 008°57'612.5
2018-Jun-12 16:00N 44°17' E 009°01'815.3
2018-Jun-12 15:30N 44°11' E 009°06'815.4
2018-Jun-12 15:00N 44°04' E 009°11'815.8
2018-Jun-12 14:30N 43°57' E 009°17'816.0
2018-Jun-12 14:00N 43°50' E 009°23'816.0
2018-Jun-12 13:31N 43°44' E 009°28'815.8
2018-Jun-12 13:00N 43°37' E 009°33'815.8
2018-Jun-12 12:31N 43°30' E 009°39'815.9
2018-Jun-12 12:00N 43°23' E 009°45'815.6
2018-Jun-12 11:30N 43°17' E 009°52'815.6
2018-Jun-12 11:00N 43°12' E 010°00'815.4
2018-Jun-12 10:30N 43°07' E 010°08'815.7
2018-Jun-12 10:00N 43°02' E 010°16'2515.6
2018-Jun-12 08:26N 42°44' E 010°38'5615.6
2018-Jun-12 04:51N 42°04' E 011°31'715.9
2018-Jun-12 04:24N 41°58' E 011°37'615.8
2018-Jun-12 04:00N 41°53' E 011°43'2216.0
2018-Jun-12 02:38N 41°36' E 012°01'1115.9
2018-Jun-12 01:58N 41°28' E 012°10'715.9
2018-Jun-12 01:30N 41°22' E 012°16'815.8
2018-Jun-12 01:00N 41°16' E 012°22'815.7
2018-Jun-12 00:30N 41°10' E 012°29'815.8
2018-Jun-12 00:00N 41°04' E 012°36'2216.2
2018-Jun-11 22:38N 40°47' E 012°55'216.2
2018-Jun-11 22:30N 40°46' E 012°57'816.3
2018-Jun-11 22:00N 40°39' E 013°04'816.4
2018-Jun-11 21:30N 40°33' E 013°11'816.4
2018-Jun-11 21:00N 40°27' E 013°18'816.5
2018-Jun-11 20:30N 40°20' E 013°24'1916.3
2018-Jun-11 19:22N 40°06' E 013°40'616.3
2018-Jun-11 19:01N 40°02' E 013°45'816.2
2018-Jun-11 18:31N 39°56' E 013°52'816.1
2018-Jun-11 18:00N 39°50' E 013°59'816.1
2018-Jun-11 17:30N 39°43' E 014°06'816.1
2018-Jun-11 17:00N 39°37' E 014°13'5016.2
2018-Jun-11 13:56N 38°60' E 014°55'716.0
2018-Jun-11 13:30N 38°55' E 015°01'816.2
2018-Jun-11 12:59N 38°48' E 015°08'816.2
2018-Jun-11 12:30N 38°42' E 015°14'816.1
2018-Jun-11 12:00N 38°36' E 015°21'815.9
2018-Jun-11 11:30N 38°30' E 015°28'815.9
2018-Jun-11 11:00N 38°25' E 015°35'815.6
2018-Jun-11 10:30N 38°19' E 015°41'511.1
2018-Jun-11 10:01N 38°14' E 015°37'713.6
2018-Jun-11 09:31N 38°07' E 015°36'714.8
2018-Jun-11 09:00N 38°01' E 015°32'816.2
2018-Jun-11 08:30N 37°53' E 015°28'1016.1
2018-Jun-11 07:51N 37°44' E 015°21'11 0.8
2018-Jun-10 18:30N 37°54' E 015°26'816.5
2018-Jun-10 18:00N 38°02' E 015°30'815.7
2018-Jun-10 17:30N 38°09' E 015°34'815.6
2018-Jun-10 17:00N 38°16' E 015°40'714.8
2018-Jun-10 16:30N 38°22' E 015°36'815.8
2018-Jun-10 16:00N 38°28' E 015°29'815.6
2018-Jun-10 15:30N 38°34' E 015°22'815.7
2018-Jun-10 14:59N 38°40' E 015°15'815.6
2018-Jun-10 14:30N 38°46' E 015°09'8415.8
2018-Jun-10 09:09N 39°50' E 013°58'215.6
2018-Jun-10 09:00N 39°52' E 013°56'3815.6
2018-Jun-10 06:35N 40°21' E 013°25'615.5
2018-Jun-10 06:13N 40°25' E 013°20'415.5
2018-Jun-10 05:59N 40°28' E 013°17'4015.7
2018-Jun-10 03:28N 40°58' E 012°43'13116.1
2018-Jun-09 19:19N 42°36' E 010°47'616.4
2018-Jun-09 18:58N 42°41' E 010°42'816.9
2018-Jun-09 18:30N 42°47' E 010°35'  

Dump ship's entire track history